Terminal Aerodrome Forecast
Issued by NWS Charleston, WV

Current Version | Previous Version | Graphics & Text | Print | Product List | Glossary On
Versions: 1 2 3 4 5 6 7 8 9 10 11 12 13 14 15 16 17 18 19 20 21 22 23 24 25
000
FTUS41 KRLX 190800 AAA
TAFBKW
TAF AMD
KBKW 190850Z 1909/2006 12010KT P6SM BKN100
     FM191100 13012G19KT P6SM BKN060
     FM191400 12018G26KT P6SM BKN015 OVC025
     FM191600 12021G32KT 6SM -SHRA OVC010
     FM200100 14016G27KT 6SM -SHRA OVC015
     FM200300 15011G17KT P6SM BKN025
     FM200500 17008KT P6SM BKN025=

USA.gov is the U.S. government's official web portal to all federal, state and local government web resources and services.